sensor_id;sensor_type;location;lat;lon;timestamp;P1;durP1;ratioP1;P2;durP2;ratioP2
12425;SDS011;6277;49.824;9.562;2023-05-10T00:00:12;1.13;;;0.75;;
12425;SDS011;6277;49.824;9.562;2023-05-10T00:02:38;1.02;;;0.73;;
12425;SDS011;6277;49.824;9.562;2023-05-10T00:05:04;0.68;;;0.63;;
12425;SDS011;6277;49.824;9.562;2023-05-10T00:07:30;1.17;;;0.80;;
12425;SDS011;6277;49.824;9.562;2023-05-10T00:09:55;1.48;;;0.70;;
12425;SDS011;6277;49.824;9.562;2023-05-10T00:12:21;2.45;;;0.70;;
12425;SDS011;6277;49.824;9.562;2023-05-10T00:14:47;0.65;;;0.55;;
12425;SDS011;6277;49.824;9.562;2023-05-10T00:17:12;0.57;;;0.57;;
12425;SDS011;6277;49.824;9.562;2023-05-10T00:19:39;0.70;;;0.60;;
12425;SDS011;6277;49.824;9.562;2023-05-10T00:22:04;1.15;;;0.60;;
12425;SDS011;6277;49.824;9.562;2023-05-10T00:24:30;0.80;;;0.70;;
12425;SDS011;6277;49.824;9.562;2023-05-10T00:26:55;0.52;;;0.50;;
12425;SDS011;6277;49.824;9.562;2023-05-10T00:29:21;0.60;;;0.60;;
12425;SDS011;6277;49.824;9.562;2023-05-10T00:31:46;0.60;;;0.50;;
12425;SDS011;6277;49.824;9.562;2023-05-10T00:34:12;0.60;;;0.52;;
12425;SDS011;6277;49.824;9.562;2023-05-10T00:36:37;0.60;;;0.60;;
12425;SDS011;6277;49.824;9.562;2023-05-10T00:39:03;1.15;;;0.73;;
12425;SDS011;6277;49.824;9.562;2023-05-10T00:41:29;1.70;;;0.60;;
12425;SDS011;6277;49.824;9.562;2023-05-10T00:43:57;0.77;;;0.50;;
12425;SDS011;6277;49.824;9.562;2023-05-10T00:46:23;0.85;;;0.50;;
12425;SDS011;6277;49.824;9.562;2023-05-10T00:48:49;0.68;;;0.60;;
12425;SDS011;6277;49.824;9.562;2023-05-10T00:51:15;0.60;;;0.40;;
12425;SDS011;6277;49.824;9.562;2023-05-10T00:53:41;0.80;;;0.50;;
12425;SDS011;6277;49.824;9.562;2023-05-10T00:56:07;1.13;;;0.40;;
12425;SDS011;6277;49.824;9.562;2023-05-10T00:58:33;0.35;;;0.28;;
12425;SDS011;6277;49.824;9.562;2023-05-10T01:00:58;0.20;;;0.20;;
12425;SDS011;6277;49.824;9.562;2023-05-10T01:03:25;1.10;;;0.20;;
12425;SDS011;6277;49.824;9.562;2023-05-10T01:05:51;0.30;;;0.20;;
12425;SDS011;6277;49.824;9.562;2023-05-10T01:08:16;0.77;;;0.20;;
12425;SDS011;6277;49.824;9.562;2023-05-10T01:10:42;0.47;;;0.10;;
12425;SDS011;6277;49.824;9.562;2023-05-10T01:13:09;0.65;;;0.17;;
12425;SDS011;6277;49.824;9.562;2023-05-10T01:15:35;0.10;;;0.10;;
12425;SDS011;6277;49.824;9.562;2023-05-10T01:18:01;0.20;;;0.20;;
12425;SDS011;6277;49.824;9.562;2023-05-10T01:20:29;0.98;;;0.20;;
12425;SDS011;6277;49.824;9.562;2023-05-10T01:23:19;1.80;;;0.10;;
12425;SDS011;6277;49.824;9.562;2023-05-10T01:26:14;0.10;;;0.10;;
12425;SDS011;6277;49.824;9.562;2023-05-10T01:34:49;0.35;;;0.10;;
12425;SDS011;6277;49.824;9.562;2023-05-10T01:37:42;0.00;;;0.00;;
12425;SDS011;6277;49.824;9.562;2023-05-10T01:40:30;0.13;;;0.10;;
12425;SDS011;6277;49.824;9.562;2023-05-10T01:43:02;0.30;;;0.10;;
12425;SDS011;6277;49.824;9.562;2023-05-10T01:45:33;0.10;;;0.10;;
12425;SDS011;6277;49.824;9.562;2023-05-10T01:48:08;0.05;;;0.05;;
12425;SDS011;6277;49.824;9.562;2023-05-10T01:50:36;1.60;;;0.10;;
12425;SDS011;6277;49.824;9.562;2023-05-10T01:53:06;0.30;;;0.10;;
12425;SDS011;6277;49.824;9.562;2023-05-10T01:55:37;0.10;;;0.10;;
12425;SDS011;6277;49.824;9.562;2023-05-10T01:58:15;0.10;;;0.10;;
12425;SDS011;6277;49.824;9.562;2023-05-10T02:00:45;0.20;;;0.10;;
12425;SDS011;6277;49.824;9.562;2023-05-10T02:03:12;0.55;;;0.20;;
12425;SDS011;6277;49.824;9.562;2023-05-10T02:05:39;0.10;;;0.10;;
12425;SDS011;6277;49.824;9.562;2023-05-10T02:08:09;0.10;;;0.10;;
12425;SDS011;6277;49.824;9.562;2023-05-10T02:10:35;0.00;;;0.00;;
12425;SDS011;6277;49.824;9.562;2023-05-10T02:13:01;0.00;;;0.00;;
12425;SDS011;6277;49.824;9.562;2023-05-10T02:15:28;0.10;;;0.10;;
12425;SDS011;6277;49.824;9.562;2023-05-10T02:17:55;0.35;;;0.10;;
12425;SDS011;6277;49.824;9.562;2023-05-10T02:20:22;0.00;;;0.00;;
12425;SDS011;6277;49.824;9.562;2023-05-10T02:22:50;0.13;;;0.10;;
12425;SDS011;6277;49.824;9.562;2023-05-10T02:25:18;0.10;;;0.10;;
12425;SDS011;6277;49.824;9.562;2023-05-10T02:27:45;0.22;;;0.10;;
12425;SDS011;6277;49.824;9.562;2023-05-10T02:30:12;0.25;;;0.10;;
12425;SDS011;6277;49.824;9.562;2023-05-10T02:32:39;0.15;;;0.08;;
12425;SDS011;6277;49.824;9.562;2023-05-10T02:35:05;0.90;;;0.10;;
12425;SDS011;6277;49.824;9.562;2023-05-10T02:37:32;0.00;;;0.00;;
12425;SDS011;6277;49.824;9.562;2023-05-10T02:39:59;1.17;;;0.10;;
12425;SDS011;6277;49.824;9.562;2023-05-10T02:42:27;0.17;;;0.00;;
12425;SDS011;6277;49.824;9.562;2023-05-10T02:44:58;0.38;;;0.00;;
12425;SDS011;6277;49.824;9.562;2023-05-10T02:47:26;0.65;;;0.10;;
12425;SDS011;6277;49.824;9.562;2023-05-10T02:49:53;0.10;;;0.10;;
12425;SDS011;6277;49.824;9.562;2023-05-10T02:52:20;0.20;;;0.10;;
12425;SDS011;6277;49.824;9.562;2023-05-10T02:54:49;0.32;;;0.10;;
12425;SDS011;6277;49.824;9.562;2023-05-10T02:57:17;0.00;;;0.00;;
12425;SDS011;6277;49.824;9.562;2023-05-10T02:59:51;0.10;;;0.10;;
12425;SDS011;6277;49.824;9.562;2023-05-10T03:02:16;0.10;;;0.10;;
12425;SDS011;6277;49.824;9.562;2023-05-10T03:04:42;0.55;;;0.05;;
12425;SDS011;6277;49.824;9.562;2023-05-10T03:07:08;0.10;;;0.10;;
12425;SDS011;6277;49.824;9.562;2023-05-10T03:09:33;0.30;;;0.20;;
12425;SDS011;6277;49.824;9.562;2023-05-10T03:17:10;0.10;;;0.10;;
12425;SDS011;6277;49.824;9.562;2023-05-10T03:19:53;0.43;;;0.05;;
12425;SDS011;6277;49.824;9.562;2023-05-10T03:22:25;2.25;;;0.00;;
12425;SDS011;6277;49.824;9.562;2023-05-10T03:24:56;0.20;;;0.10;;
12425;SDS011;6277;49.824;9.562;2023-05-10T03:27:23;0.10;;;0.03;;
12425;SDS011;6277;49.824;9.562;2023-05-10T03:29:51;0.08;;;0.08;;
12425;SDS011;6277;49.824;9.562;2023-05-10T03:32:18;0.30;;;0.10;;
12425;SDS011;6277;49.824;9.562;2023-05-10T03:34:44;1.75;;;0.00;;
12425;SDS011;6277;49.824;9.562;2023-05-10T03:37:09;0.10;;;0.10;;
12425;SDS011;6277;49.824;9.562;2023-05-10T03:39:35;0.00;;;0.00;;
12425;SDS011;6277;49.824;9.562;2023-05-10T03:42:01;0.00;;;0.00;;
12425;SDS011;6277;49.824;9.562;2023-05-10T03:44:26;0.10;;;0.03;;
12425;SDS011;6277;49.824;9.562;2023-05-10T03:46:52;0.30;;;0.10;;
12425;SDS011;6277;49.824;9.562;2023-05-10T03:49:18;1.08;;;0.10;;
12425;SDS011;6277;49.824;9.562;2023-05-10T03:51:43;0.13;;;0.10;;
12425;SDS011;6277;49.824;9.562;2023-05-10T03:54:09;0.10;;;0.10;;
12425;SDS011;6277;49.824;9.562;2023-05-10T03:56:34;0.10;;;0.10;;
12425;SDS011;6277;49.824;9.562;2023-05-10T03:59:00;0.10;;;0.10;;
12425;SDS011;6277;49.824;9.562;2023-05-10T04:01:25;0.10;;;0.10;;
12425;SDS011;6277;49.824;9.562;2023-05-10T04:03:51;0.10;;;0.10;;
12425;SDS011;6277;49.824;9.562;2023-05-10T04:06:17;0.20;;;0.15;;
12425;SDS011;6277;49.824;9.562;2023-05-10T04:08:42;0.38;;;0.17;;
12425;SDS011;6277;49.824;9.562;2023-05-10T04:11:08;0.10;;;0.10;;
12425;SDS011;6277;49.824;9.562;2023-05-10T04:13:35;0.17;;;0.15;;
12425;SDS011;6277;49.824;9.562;2023-05-10T04:16:01;0.60;;;0.10;;
12425;SDS011;6277;49.824;9.562;2023-05-10T04:18:26;0.15;;;0.15;;
12425;SDS011;6277;49.824;9.562;2023-05-10T04:20:52;0.28;;;0.28;;
12425;SDS011;6277;49.824;9.562;2023-05-10T04:23:18;0.10;;;0.10;;
12425;SDS011;6277;49.824;9.562;2023-05-10T04:25:43;3.28;;;0.20;;
12425;SDS011;6277;49.824;9.562;2023-05-10T04:28:09;0.20;;;0.20;;
12425;SDS011;6277;49.824;9.562;2023-05-10T04:30:34;0.90;;;0.10;;
12425;SDS011;6277;49.824;9.562;2023-05-10T04:33:00;1.13;;;0.22;;
12425;SDS011;6277;49.824;9.562;2023-05-10T04:35:29;0.20;;;0.20;;
12425;SDS011;6277;49.824;9.562;2023-05-10T04:37:54;0.15;;;0.15;;
12425;SDS011;6277;49.824;9.562;2023-05-10T04:40:20;0.20;;;0.20;;
12425;SDS011;6277;49.824;9.562;2023-05-10T04:42:45;0.88;;;0.20;;
12425;SDS011;6277;49.824;9.562;2023-05-10T04:45:11;1.08;;;0.10;;
12425;SDS011;6277;49.824;9.562;2023-05-10T04:47:37;0.20;;;0.20;;
12425;SDS011;6277;49.824;9.562;2023-05-10T04:50:05;0.30;;;0.20;;
12425;SDS011;6277;49.824;9.562;2023-05-10T04:52:32;0.30;;;0.25;;
12425;SDS011;6277;49.824;9.562;2023-05-10T04:54:57;1.05;;;0.20;;
12425;SDS011;6277;49.824;9.562;2023-05-10T04:57:23;0.40;;;0.30;;
12425;SDS011;6277;49.824;9.562;2023-05-10T04:59:48;0.20;;;0.20;;
12425;SDS011;6277;49.824;9.562;2023-05-10T05:02:14;0.22;;;0.22;;
12425;SDS011;6277;49.824;9.562;2023-05-10T05:04:39;0.32;;;0.30;;
12425;SDS011;6277;49.824;9.562;2023-05-10T05:07:05;2.00;;;0.35;;
12425;SDS011;6277;49.824;9.562;2023-05-10T05:09:30;0.40;;;0.32;;
12425;SDS011;6277;49.824;9.562;2023-05-10T05:11:57;2.30;;;0.40;;
12425;SDS011;6277;49.824;9.562;2023-05-10T05:14:22;0.30;;;0.30;;
12425;SDS011;6277;49.824;9.562;2023-05-10T05:16:50;1.35;;;0.35;;
12425;SDS011;6277;49.824;9.562;2023-05-10T05:19:16;0.93;;;0.38;;
12425;SDS011;6277;49.824;9.562;2023-05-10T05:21:41;1.20;;;0.28;;
12425;SDS011;6277;49.824;9.562;2023-05-10T05:24:07;1.42;;;0.40;;
12425;SDS011;6277;49.824;9.562;2023-05-10T05:26:32;0.73;;;0.32;;
12425;SDS011;6277;49.824;9.562;2023-05-10T05:28:58;0.30;;;0.30;;
12425;SDS011;6277;49.824;9.562;2023-05-10T05:31:23;0.70;;;0.40;;
12425;SDS011;6277;49.824;9.562;2023-05-10T05:33:49;0.30;;;0.30;;
12425;SDS011;6277;49.824;9.562;2023-05-10T05:36:14;1.20;;;0.45;;
12425;SDS011;6277;49.824;9.562;2023-05-10T05:38:40;0.35;;;0.32;;
12425;SDS011;6277;49.824;9.562;2023-05-10T05:41:06;1.17;;;0.40;;
12425;SDS011;6277;49.824;9.562;2023-05-10T05:43:31;0.40;;;0.30;;
12425;SDS011;6277;49.824;9.562;2023-05-10T05:45:57;0.40;;;0.30;;
12425;SDS011;6277;49.824;9.562;2023-05-10T05:48:25;1.00;;;0.30;;
12425;SDS011;6277;49.824;9.562;2023-05-10T05:50:53;0.98;;;0.40;;
12425;SDS011;6277;49.824;9.562;2023-05-10T05:53:20;0.35;;;0.35;;
12425;SDS011;6277;49.824;9.562;2023-05-10T05:55:56;0.30;;;0.30;;
12425;SDS011;6277;49.824;9.562;2023-05-10T05:58:22;0.45;;;0.43;;
12425;SDS011;6277;49.824;9.562;2023-05-10T06:00:49;0.30;;;0.30;;
12425;SDS011;6277;49.824;9.562;2023-05-10T06:03:16;0.40;;;0.40;;
12425;SDS011;6277;49.824;9.562;2023-05-10T06:05:42;0.40;;;0.40;;
12425;SDS011;6277;49.824;9.562;2023-05-10T06:08:08;0.57;;;0.43;;
12425;SDS011;6277;49.824;9.562;2023-05-10T06:10:33;0.57;;;0.30;;
12425;SDS011;6277;49.824;9.562;2023-05-10T06:12:59;0.55;;;0.40;;
12425;SDS011;6277;49.824;9.562;2023-05-10T06:15:25;0.50;;;0.50;;
12425;SDS011;6277;49.824;9.562;2023-05-10T06:17:51;0.50;;;0.45;;
12425;SDS011;6277;49.824;9.562;2023-05-10T06:20:16;1.38;;;0.60;;
12425;SDS011;6277;49.824;9.562;2023-05-10T06:22:42;2.00;;;0.50;;
12425;SDS011;6277;49.824;9.562;2023-05-10T06:25:08;1.10;;;0.60;;
12425;SDS011;6277;49.824;9.562;2023-05-10T06:27:34;0.40;;;0.40;;
12425;SDS011;6277;49.824;9.562;2023-05-10T06:29:59;0.75;;;0.60;;
12425;SDS011;6277;49.824;9.562;2023-05-10T06:32:25;0.60;;;0.52;;
12425;SDS011;6277;49.824;9.562;2023-05-10T06:34:50;0.60;;;0.50;;
12425;SDS011;6277;49.824;9.562;2023-05-10T06:37:17;0.60;;;0.50;;
12425;SDS011;6277;49.824;9.562;2023-05-10T06:39:42;1.52;;;0.75;;
12425;SDS011;6277;49.824;9.562;2023-05-10T06:42:08;0.43;;;0.40;;
12425;SDS011;6277;49.824;9.562;2023-05-10T06:44:33;0.57;;;0.57;;
12425;SDS011;6277;49.824;9.562;2023-05-10T06:46:59;1.08;;;0.60;;
12425;SDS011;6277;49.824;9.562;2023-05-10T06:49:24;0.93;;;0.50;;
12425;SDS011;6277;49.824;9.562;2023-05-10T06:51:50;2.42;;;0.70;;
12425;SDS011;6277;49.824;9.562;2023-05-10T06:54:15;2.10;;;0.60;;
12425;SDS011;6277;49.824;9.562;2023-05-10T06:56:41;1.60;;;0.70;;
12425;SDS011;6277;49.824;9.562;2023-05-10T06:59:07;0.77;;;0.50;;
12425;SDS011;6277;49.824;9.562;2023-05-10T07:01:32;0.85;;;0.60;;
12425;SDS011;6277;49.824;9.562;2023-05-10T07:03:58;2.13;;;0.90;;
12425;SDS011;6277;49.824;9.562;2023-05-10T07:06:23;0.98;;;0.60;;
12425;SDS011;6277;49.824;9.562;2023-05-10T07:08:49;1.67;;;0.50;;
12425;SDS011;6277;49.824;9.562;2023-05-10T07:11:14;2.15;;;0.82;;
12425;SDS011;6277;49.824;9.562;2023-05-10T07:13:40;1.15;;;0.50;;
12425;SDS011;6277;49.824;9.562;2023-05-10T07:16:09;2.10;;;0.90;;
12425;SDS011;6277;49.824;9.562;2023-05-10T07:18:35;2.58;;;0.80;;
12425;SDS011;6277;49.824;9.562;2023-05-10T07:21:00;0.90;;;0.80;;
12425;SDS011;6277;49.824;9.562;2023-05-10T07:23:26;1.48;;;0.60;;
12425;SDS011;6277;49.824;9.562;2023-05-10T07:25:52;1.35;;;0.70;;
12425;SDS011;6277;49.824;9.562;2023-05-10T07:28:18;1.50;;;0.70;;
12425;SDS011;6277;49.824;9.562;2023-05-10T07:30:44;1.35;;;0.60;;
12425;SDS011;6277;49.824;9.562;2023-05-10T07:33:10;1.17;;;0.60;;
12425;SDS011;6277;49.824;9.562;2023-05-10T07:35:37;1.27;;;0.65;;
12425;SDS011;6277;49.824;9.562;2023-05-10T07:38:03;0.80;;;0.50;;
12425;SDS011;6277;49.824;9.562;2023-05-10T07:40:28;1.58;;;0.70;;
12425;SDS011;6277;49.824;9.562;2023-05-10T07:42:54;1.27;;;0.60;;
12425;SDS011;6277;49.824;9.562;2023-05-10T07:45:19;1.95;;;0.60;;
12425;SDS011;6277;49.824;9.562;2023-05-10T07:47:45;0.82;;;0.60;;
12425;SDS011;6277;49.824;9.562;2023-05-10T07:50:10;2.40;;;0.90;;
12425;SDS011;6277;49.824;9.562;2023-05-10T07:52:36;1.20;;;0.70;;
12425;SDS011;6277;49.824;9.562;2023-05-10T07:55:02;1.80;;;0.68;;
12425;SDS011;6277;49.824;9.562;2023-05-10T07:57:28;1.65;;;0.60;;
12425;SDS011;6277;49.824;9.562;2023-05-10T07:59:53;1.92;;;0.80;;
12425;SDS011;6277;49.824;9.562;2023-05-10T08:02:19;1.95;;;0.65;;
12425;SDS011;6277;49.824;9.562;2023-05-10T08:04:44;0.93;;;0.60;;
12425;SDS011;6277;49.824;9.562;2023-05-10T08:07:10;0.88;;;0.50;;
12425;SDS011;6277;49.824;9.562;2023-05-10T08:09:36;1.73;;;0.50;;
12425;SDS011;6277;49.824;9.562;2023-05-10T08:12:01;1.45;;;0.50;;
12425;SDS011;6277;49.824;9.562;2023-05-10T08:14:28;1.23;;;0.57;;
12425;SDS011;6277;49.824;9.562;2023-05-10T08:16:54;0.70;;;0.40;;
12425;SDS011;6277;49.824;9.562;2023-05-10T08:19:20;1.52;;;0.70;;
12425;SDS011;6277;49.824;9.562;2023-05-10T08:21:46;0.80;;;0.70;;
12425;SDS011;6277;49.824;9.562;2023-05-10T08:24:12;0.80;;;0.60;;
12425;SDS011;6277;49.824;9.562;2023-05-10T08:26:38;1.80;;;0.60;;
12425;SDS011;6277;49.824;9.562;2023-05-10T08:29:03;1.83;;;0.70;;
12425;SDS011;6277;49.824;9.562;2023-05-10T08:31:29;2.72;;;0.65;;
12425;SDS011;6277;49.824;9.562;2023-05-10T08:33:55;1.75;;;0.70;;
12425;SDS011;6277;49.824;9.562;2023-05-10T08:36:20;1.48;;;0.73;;
12425;SDS011;6277;49.824;9.562;2023-05-10T08:38:51;1.20;;;0.70;;
12425;SDS011;6277;49.824;9.562;2023-05-10T08:41:21;1.63;;;0.77;;
12425;SDS011;6277;49.824;9.562;2023-05-10T08:43:49;1.35;;;0.60;;
12425;SDS011;6277;49.824;9.562;2023-05-10T08:46:19;1.10;;;0.70;;
12425;SDS011;6277;49.824;9.562;2023-05-10T08:48:46;1.90;;;0.70;;
12425;SDS011;6277;49.824;9.562;2023-05-10T08:51:16;1.67;;;0.57;;
12425;SDS011;6277;49.824;9.562;2023-05-10T08:53:43;2.85;;;0.60;;
12425;SDS011;6277;49.824;9.562;2023-05-10T08:56:10;2.15;;;0.60;;
12425;SDS011;6277;49.824;9.562;2023-05-10T08:58:36;1.45;;;0.85;;
12425;SDS011;6277;49.824;9.562;2023-05-10T09:01:02;1.65;;;0.63;;
12425;SDS011;6277;49.824;9.562;2023-05-10T09:03:28;0.55;;;0.55;;
12425;SDS011;6277;49.824;9.562;2023-05-10T09:05:55;1.25;;;0.70;;
12425;SDS011;6277;49.824;9.562;2023-05-10T09:08:21;2.35;;;0.50;;
12425;SDS011;6277;49.824;9.562;2023-05-10T09:10:51;1.10;;;0.70;;
12425;SDS011;6277;49.824;9.562;2023-05-10T09:13:17;1.65;;;0.60;;
12425;SDS011;6277;49.824;9.562;2023-05-10T09:15:44;1.00;;;0.60;;
12425;SDS011;6277;49.824;9.562;2023-05-10T09:18:10;4.55;;;0.80;;
12425;SDS011;6277;49.824;9.562;2023-05-10T09:20:36;0.80;;;0.60;;
12425;SDS011;6277;49.824;9.562;2023-05-10T09:23:02;2.67;;;0.70;;
12425;SDS011;6277;49.824;9.562;2023-05-10T09:25:27;0.60;;;0.60;;
12425;SDS011;6277;49.824;9.562;2023-05-10T09:27:53;1.50;;;0.60;;
12425;SDS011;6277;49.824;9.562;2023-05-10T09:30:23;1.48;;;0.70;;
12425;SDS011;6277;49.824;9.562;2023-05-10T09:32:50;1.65;;;0.80;;
12425;SDS011;6277;49.824;9.562;2023-05-10T09:35:18;0.98;;;0.60;;
12425;SDS011;6277;49.824;9.562;2023-05-10T09:37:45;1.02;;;0.60;;
12425;SDS011;6277;49.824;9.562;2023-05-10T09:40:13;1.38;;;0.60;;
12425;SDS011;6277;49.824;9.562;2023-05-10T09:42:40;1.75;;;0.43;;
12425;SDS011;6277;49.824;9.562;2023-05-10T09:45:25;0.70;;;0.50;;
12425;SDS011;6277;49.824;9.562;2023-05-10T09:47:54;1.00;;;0.70;;
12425;SDS011;6277;49.824;9.562;2023-05-10T09:50:20;1.15;;;0.55;;
12425;SDS011;6277;49.824;9.562;2023-05-10T09:52:48;2.15;;;0.55;;
12425;SDS011;6277;49.824;9.562;2023-05-10T09:55:22;1.33;;;0.57;;
12425;SDS011;6277;49.824;9.562;2023-05-10T09:57:49;1.50;;;0.68;;
12425;SDS011;6277;49.824;9.562;2023-05-10T10:00:22;1.15;;;0.60;;
12425;SDS011;6277;49.824;9.562;2023-05-10T10:02:54;0.60;;;0.55;;
12425;SDS011;6277;49.824;9.562;2023-05-10T10:05:30;0.77;;;0.47;;
12425;SDS011;6277;49.824;9.562;2023-05-10T10:08:02;1.05;;;0.50;;
12425;SDS011;6277;49.824;9.562;2023-05-10T10:10:29;0.90;;;0.45;;
12425;SDS011;6277;49.824;9.562;2023-05-10T10:12:56;1.70;;;0.50;;
12425;SDS011;6277;49.824;9.562;2023-05-10T10:15:22;1.70;;;0.50;;
12425;SDS011;6277;49.824;9.562;2023-05-10T10:17:48;0.68;;;0.47;;
12425;SDS011;6277;49.824;9.562;2023-05-10T10:20:15;1.00;;;0.57;;
12425;SDS011;6277;49.824;9.562;2023-05-10T10:22:41;0.40;;;0.40;;
12425;SDS011;6277;49.824;9.562;2023-05-10T10:25:08;0.50;;;0.43;;
12425;SDS011;6277;49.824;9.562;2023-05-10T10:27:44;1.38;;;0.40;;
12425;SDS011;6277;49.824;9.562;2023-05-10T10:35:28;1.02;;;0.40;;
12425;SDS011;6277;49.824;9.562;2023-05-10T10:37:55;1.75;;;0.30;;
12425;SDS011;6277;49.824;9.562;2023-05-10T10:40:31;0.40;;;0.40;;
12425;SDS011;6277;49.824;9.562;2023-05-10T10:42:59;2.47;;;0.40;;
12425;SDS011;6277;49.824;9.562;2023-05-10T10:45:48;0.65;;;0.40;;
12425;SDS011;6277;49.824;9.562;2023-05-10T10:48:36;1.23;;;0.50;;
12425;SDS011;6277;49.824;9.562;2023-05-10T10:51:02;0.70;;;0.40;;
12425;SDS011;6277;49.824;9.562;2023-05-10T10:53:28;1.48;;;0.50;;
12425;SDS011;6277;49.824;9.562;2023-05-10T10:56:07;3.05;;;0.50;;
12425;SDS011;6277;49.824;9.562;2023-05-10T10:58:38;0.50;;;0.40;;
12425;SDS011;6277;49.824;9.562;2023-05-10T11:01:11;0.80;;;0.70;;
12425;SDS011;6277;49.824;9.562;2023-05-10T11:03:41;0.73;;;0.30;;
12425;SDS011;6277;49.824;9.562;2023-05-10T11:06:29;0.80;;;0.60;;
12425;SDS011;6277;49.824;9.562;2023-05-10T11:08:56;1.60;;;0.38;;
12425;SDS011;6277;49.824;9.562;2023-05-10T11:11:22;0.30;;;0.30;;
12425;SDS011;6277;49.824;9.562;2023-05-10T11:13:48;0.47;;;0.28;;
12425;SDS011;6277;49.824;9.562;2023-05-10T11:16:20;1.08;;;0.60;;
12425;SDS011;6277;49.824;9.562;2023-05-10T11:19:04;0.70;;;0.32;;
12425;SDS011;6277;49.824;9.562;2023-05-10T11:21:33;0.30;;;0.30;;
12425;SDS011;6277;49.824;9.562;2023-05-10T11:24:12;0.88;;;0.40;;
12425;SDS011;6277;49.824;9.562;2023-05-10T11:26:40;0.68;;;0.40;;
12425;SDS011;6277;49.824;9.562;2023-05-10T11:29:05;1.30;;;0.50;;
12425;SDS011;6277;49.824;9.562;2023-05-10T11:31:31;0.70;;;0.50;;
12425;SDS011;6277;49.824;9.562;2023-05-10T11:33:58;0.52;;;0.30;;
12425;SDS011;6277;49.824;9.562;2023-05-10T11:36:27;0.50;;;0.50;;
12425;SDS011;6277;49.824;9.562;2023-05-10T11:38:54;0.50;;;0.30;;
12425;SDS011;6277;49.824;9.562;2023-05-10T11:41:22;1.20;;;0.47;;
12425;SDS011;6277;49.824;9.562;2023-05-10T11:43:49;1.38;;;0.32;;
12425;SDS011;6277;49.824;9.562;2023-05-10T11:46:18;0.80;;;0.40;;
12425;SDS011;6277;49.824;9.562;2023-05-10T11:48:49;1.33;;;0.45;;
12425;SDS011;6277;49.824;9.562;2023-05-10T11:51:19;0.50;;;0.30;;
12425;SDS011;6277;49.824;9.562;2023-05-10T11:53:49;1.95;;;0.30;;
12425;SDS011;6277;49.824;9.562;2023-05-10T11:56:17;1.85;;;0.30;;
12425;SDS011;6277;49.824;9.562;2023-05-10T11:58:42;0.45;;;0.30;;
12425;SDS011;6277;49.824;9.562;2023-05-10T12:01:08;0.30;;;0.20;;
12425;SDS011;6277;49.824;9.562;2023-05-10T12:03:35;0.40;;;0.30;;
12425;SDS011;6277;49.824;9.562;2023-05-10T12:06:01;0.45;;;0.32;;
12425;SDS011;6277;49.824;9.562;2023-05-10T12:08:28;1.83;;;0.30;;
12425;SDS011;6277;49.824;9.562;2023-05-10T12:11:08;1.17;;;0.30;;
12425;SDS011;6277;49.824;9.562;2023-05-10T12:13:39;0.73;;;0.30;;
12425;SDS011;6277;49.824;9.562;2023-05-10T12:16:18;0.55;;;0.30;;
12425;SDS011;6277;49.824;9.562;2023-05-10T12:18:47;0.55;;;0.50;;
12425;SDS011;6277;49.824;9.562;2023-05-10T12:21:14;1.05;;;0.20;;
12425;SDS011;6277;49.824;9.562;2023-05-10T12:23:40;0.65;;;0.30;;
12425;SDS011;6277;49.824;9.562;2023-05-10T12:26:08;0.40;;;0.30;;
12425;SDS011;6277;49.824;9.562;2023-05-10T12:28:35;0.55;;;0.40;;
12425;SDS011;6277;49.824;9.562;2023-05-10T12:31:01;1.33;;;0.40;;
12425;SDS011;6277;49.824;9.562;2023-05-10T12:33:27;0.52;;;0.30;;
12425;SDS011;6277;49.824;9.562;2023-05-10T12:36:03;0.55;;;0.40;;
12425;SDS011;6277;49.824;9.562;2023-05-10T12:41:07;0.30;;;0.30;;
12425;SDS011;6277;49.824;9.562;2023-05-10T12:43:34;0.82;;;0.40;;
12425;SDS011;6277;49.824;9.562;2023-05-10T12:46:07;0.88;;;0.40;;
12425;SDS011;6277;49.824;9.562;2023-05-10T12:48:36;1.27;;;0.50;;
12425;SDS011;6277;49.824;9.562;2023-05-10T12:51:02;1.33;;;0.50;;
12425;SDS011;6277;49.824;9.562;2023-05-10T12:53:28;1.15;;;0.47;;
12425;SDS011;6277;49.824;9.562;2023-05-10T12:55:54;0.65;;;0.40;;
12425;SDS011;6277;49.824;9.562;2023-05-10T12:58:20;0.55;;;0.30;;
12425;SDS011;6277;49.824;9.562;2023-05-10T13:00:45;1.05;;;0.50;;
12425;SDS011;6277;49.824;9.562;2023-05-10T13:03:11;0.93;;;0.50;;
12425;SDS011;6277;49.824;9.562;2023-05-10T13:05:37;2.10;;;0.45;;
12425;SDS011;6277;49.824;9.562;2023-05-10T13:08:03;0.77;;;0.50;;
12425;SDS011;6277;49.824;9.562;2023-05-10T13:10:29;0.40;;;0.40;;
12425;SDS011;6277;49.824;9.562;2023-05-10T13:12:56;1.23;;;0.40;;
12425;SDS011;6277;49.824;9.562;2023-05-10T13:15:23;0.47;;;0.47;;
12425;SDS011;6277;49.824;9.562;2023-05-10T13:17:48;0.57;;;0.45;;
12425;SDS011;6277;49.824;9.562;2023-05-10T13:20:14;1.25;;;0.45;;
12425;SDS011;6277;49.824;9.562;2023-05-10T13:22:40;1.30;;;0.45;;
12425;SDS011;6277;49.824;9.562;2023-05-10T13:25:06;0.47;;;0.47;;
12425;SDS011;6277;49.824;9.562;2023-05-10T13:27:32;0.52;;;0.43;;
12425;SDS011;6277;49.824;9.562;2023-05-10T13:29:58;0.80;;;0.40;;
12425;SDS011;6277;49.824;9.562;2023-05-10T13:32:24;0.95;;;0.50;;
12425;SDS011;6277;49.824;9.562;2023-05-10T13:34:50;2.10;;;0.60;;
12425;SDS011;6277;49.824;9.562;2023-05-10T13:37:16;1.10;;;0.40;;
12425;SDS011;6277;49.824;9.562;2023-05-10T13:39:42;0.93;;;0.40;;
12425;SDS011;6277;49.824;9.562;2023-05-10T13:42:07;0.55;;;0.40;;
12425;SDS011;6277;49.824;9.562;2023-05-10T13:44:33;1.02;;;0.40;;
12425;SDS011;6277;49.824;9.562;2023-05-10T13:46:58;0.50;;;0.50;;
12425;SDS011;6277;49.824;9.562;2023-05-10T13:49:24;0.80;;;0.50;;
12425;SDS011;6277;49.824;9.562;2023-05-10T13:51:50;1.95;;;0.40;;
12425;SDS011;6277;49.824;9.562;2023-05-10T13:54:16;1.77;;;0.55;;
12425;SDS011;6277;49.824;9.562;2023-05-10T13:56:44;1.45;;;0.35;;
12425;SDS011;6277;49.824;9.562;2023-05-10T13:59:10;0.35;;;0.35;;
12425;SDS011;6277;49.824;9.562;2023-05-10T14:01:35;1.23;;;0.43;;
12425;SDS011;6277;49.824;9.562;2023-05-10T14:04:01;0.45;;;0.40;;
12425;SDS011;6277;49.824;9.562;2023-05-10T14:06:27;0.55;;;0.38;;
12425;SDS011;6277;49.824;9.562;2023-05-10T14:08:52;0.60;;;0.43;;
12425;SDS011;6277;49.824;9.562;2023-05-10T14:11:18;0.88;;;0.40;;
12425;SDS011;6277;49.824;9.562;2023-05-10T14:13:44;0.90;;;0.45;;
12425;SDS011;6277;49.824;9.562;2023-05-10T14:16:10;1.35;;;0.40;;
12425;SDS011;6277;49.824;9.562;2023-05-10T14:18:36;0.40;;;0.40;;
12425;SDS011;6277;49.824;9.562;2023-05-10T14:21:02;0.82;;;0.40;;
12425;SDS011;6277;49.824;9.562;2023-05-10T14:23:28;1.10;;;0.40;;
12425;SDS011;6277;49.824;9.562;2023-05-10T14:25:53;2.03;;;0.57;;
12425;SDS011;6277;49.824;9.562;2023-05-10T14:28:19;0.77;;;0.40;;
12425;SDS011;6277;49.824;9.562;2023-05-10T14:30:46;1.20;;;0.40;;
12425;SDS011;6277;49.824;9.562;2023-05-10T14:33:12;0.65;;;0.40;;
12425;SDS011;6277;49.824;9.562;2023-05-10T14:35:38;0.80;;;0.32;;
12425;SDS011;6277;49.824;9.562;2023-05-10T14:38:03;1.00;;;0.57;;
12425;SDS011;6277;49.824;9.562;2023-05-10T14:40:29;0.68;;;0.28;;
12425;SDS011;6277;49.824;9.562;2023-05-10T14:42:55;0.40;;;0.40;;
12425;SDS011;6277;49.824;9.562;2023-05-10T14:45:21;0.93;;;0.40;;
12425;SDS011;6277;49.824;9.562;2023-05-10T14:47:47;0.43;;;0.35;;
12425;SDS011;6277;49.824;9.562;2023-05-10T14:50:13;1.38;;;0.45;;
12425;SDS011;6277;49.824;9.562;2023-05-10T14:52:39;0.50;;;0.30;;
12425;SDS011;6277;49.824;9.562;2023-05-10T14:55:04;0.47;;;0.40;;
12425;SDS011;6277;49.824;9.562;2023-05-10T14:57:30;0.30;;;0.30;;
12425;SDS011;6277;49.824;9.562;2023-05-10T14:59:57;0.85;;;0.30;;
12425;SDS011;6277;49.824;9.562;2023-05-10T15:02:22;1.25;;;0.40;;
12425;SDS011;6277;49.824;9.562;2023-05-10T15:04:48;1.17;;;0.57;;
12425;SDS011;6277;49.824;9.562;2023-05-10T15:07:13;1.15;;;0.40;;
12425;SDS011;6277;49.824;9.562;2023-05-10T15:09:40;0.85;;;0.40;;
12425;SDS011;6277;49.824;9.562;2023-05-10T15:12:06;0.60;;;0.45;;
12425;SDS011;6277;49.824;9.562;2023-05-10T15:14:31;0.63;;;0.32;;
12425;SDS011;6277;49.824;9.562;2023-05-10T15:16:57;1.05;;;0.45;;
12425;SDS011;6277;49.824;9.562;2023-05-10T15:19:23;0.57;;;0.38;;